createdAt,value
2019-05-06T00:00:34.527Z,975.67
2019-05-06T00:01:34.525Z,975.72
2019-05-06T00:02:34.519Z,975.67
2019-05-06T00:03:34.548Z,975.69
2019-05-06T00:04:34.507Z,975.67
2019-05-06T00:05:34.496Z,975.68
2019-05-06T00:06:34.792Z,975.65
2019-05-06T00:07:34.493Z,975.69
2019-05-06T00:08:34.733Z,975.65
2019-05-06T00:09:34.889Z,975.66
2019-05-06T00:10:34.477Z,975.67
2019-05-06T00:11:34.750Z,975.67
2019-05-06T00:12:34.468Z,975.65
2019-05-06T00:13:34.489Z,975.69
2019-05-06T00:14:34.452Z,975.75
2019-05-06T00:15:34.565Z,975.69
2019-05-06T00:16:34.846Z,975.69
2019-05-06T00:17:34.894Z,975.67
2019-05-06T00:18:34.466Z,975.63
2019-05-06T00:19:34.429Z,975.67
2019-05-06T00:20:34.999Z,975.66
2019-05-06T00:21:35.608Z,975.69
2019-05-06T00:22:34.464Z,975.71
2019-05-06T00:23:37.765Z,975.66
2019-05-06T00:24:34.815Z,975.64
2019-05-06T00:25:34.885Z,975.65
2019-05-06T00:26:34.389Z,975.65
2019-05-06T00:27:34.384Z,975.68
2019-05-06T00:28:34.404Z,975.66
2019-05-06T00:29:34.969Z,975.66
2019-05-06T00:30:34.575Z,975.66
2019-05-06T00:31:34.667Z,975.69
2019-05-06T00:32:34.792Z,975.70
2019-05-06T00:33:34.376Z,975.69
2019-05-06T00:34:34.355Z,975.64
2019-05-06T00:35:34.349Z,975.66
2019-05-06T00:36:34.557Z,975.64
2019-05-06T00:37:34.916Z,975.65
2019-05-06T00:38:34.356Z,975.67
2019-05-06T00:39:34.316Z,975.64
2019-05-06T00:40:34.315Z,975.64
2019-05-06T00:41:36.425Z,975.59
2019-05-06T00:42:34.770Z,975.60
2019-05-06T00:43:34.583Z,975.61
2019-05-06T00:44:34.723Z,975.61
2019-05-06T00:45:34.284Z,975.62
2019-05-06T00:46:34.562Z,975.62
2019-05-06T00:47:34.271Z,975.65
2019-05-06T00:48:34.378Z,975.64
2019-05-06T00:49:34.535Z,975.64
2019-05-06T00:50:34.900Z,975.65
2019-05-06T00:51:34.252Z,975.65
2019-05-06T00:52:34.269Z,975.64
2019-05-06T00:53:34.696Z,975.65
2019-05-06T00:54:34.231Z,975.67
2019-05-06T00:55:34.264Z,975.64
2019-05-06T00:56:34.302Z,975.68
2019-05-06T00:57:34.216Z,975.66
2019-05-06T00:58:34.722Z,975.70
2019-05-06T00:59:34.615Z,975.70
2019-05-06T01:00:34.207Z,975.71
2019-05-06T01:01:34.608Z,975.69
2019-05-06T01:02:34.307Z,975.70
2019-05-06T01:03:34.706Z,975.67
2019-05-06T01:04:34.207Z,975.67
2019-05-06T01:05:34.165Z,975.66
2019-05-06T01:06:34.611Z,975.66
2019-05-06T01:07:34.532Z,975.63
2019-05-06T01:08:34.845Z,975.65
2019-05-06T01:09:34.514Z,975.67
2019-05-06T01:10:34.462Z,975.68
2019-05-06T01:11:34.581Z,975.65
2019-05-06T01:12:34.654Z,975.68
2019-05-06T01:13:35.100Z,975.67
2019-05-06T01:14:35.190Z,975.66
2019-05-06T01:15:34.406Z,975.71
2019-05-06T01:16:34.529Z,975.66
2019-05-06T01:17:34.100Z,975.69
2019-05-06T01:18:34.179Z,975.69
2019-05-06T01:19:34.265Z,975.66
2019-05-06T01:20:34.118Z,975.69
2019-05-06T01:21:34.297Z,975.72
2019-05-06T01:22:34.217Z,975.74
2019-05-06T01:23:34.258Z,975.76
2019-05-06T01:24:34.493Z,975.74
2019-05-06T01:25:34.583Z,975.73
2019-05-06T01:26:34.050Z,975.72
2019-05-06T01:27:34.075Z,975.78
2019-05-06T01:28:34.188Z,975.82
2019-05-06T01:29:34.820Z,975.85
2019-05-06T01:30:34.030Z,975.82
2019-05-06T01:31:42.695Z,975.82
2019-05-06T01:32:34.559Z,975.82
2019-05-06T01:33:35.040Z,975.81
2019-05-06T01:34:34.168Z,975.81
2019-05-06T01:35:35.208Z,975.83
2019-05-06T01:36:34.501Z,975.79
2019-05-06T01:37:34.705Z,975.80
2019-05-06T01:38:34.119Z,975.79
2019-05-06T01:39:34.233Z,975.81
2019-05-06T01:40:34.599Z,975.81
2019-05-06T01:41:34.016Z,975.83
2019-05-06T01:42:34.535Z,975.81
2019-05-06T01:43:34.668Z,975.80
2019-05-06T01:44:34.049Z,975.84
2019-05-06T01:45:34.848Z,975.84
2019-05-06T01:46:34.129Z,975.85
2019-05-06T01:47:34.538Z,975.87
2019-05-06T01:48:33.930Z,975.86
2019-05-06T01:49:34.137Z,975.91
2019-05-06T01:50:34.479Z,975.85
2019-05-06T01:51:34.811Z,975.86
2019-05-06T01:52:34.485Z,975.89
2019-05-06T01:53:33.950Z,975.91
2019-05-06T01:54:34.521Z,975.87
2019-05-06T01:55:34.322Z,975.90
2019-05-06T01:56:33.893Z,975.92
2019-05-06T01:57:33.919Z,975.92
2019-05-06T01:58:33.881Z,975.89
2019-05-06T01:59:34.213Z,975.92
2019-05-06T02:00:34.415Z,975.96
2019-05-06T02:01:34.310Z,975.97
2019-05-06T02:02:34.381Z,975.96
2019-05-06T02:03:34.734Z,975.99
2019-05-06T02:04:33.907Z,976.00
2019-05-06T02:05:33.841Z,976.01
2019-05-06T02:06:34.402Z,975.98
2019-05-06T02:07:34.954Z,975.99
2019-05-06T02:08:33.857Z,976.01
2019-05-06T02:09:34.230Z,975.99
2019-05-06T02:10:34.932Z,976.02
2019-05-06T02:11:33.934Z,976.03
2019-05-06T02:12:34.277Z,976.03
2019-05-06T02:13:34.907Z,976.02
2019-05-06T02:14:34.214Z,976.02
2019-05-06T02:15:34.640Z,976.02
2019-05-06T02:16:34.447Z,976.08
2019-05-06T02:17:34.506Z,976.08
2019-05-06T02:18:33.991Z,976.09
2019-05-06T02:19:34.760Z,976.12
2019-05-06T02:20:34.079Z,976.15
2019-05-06T02:21:33.769Z,976.11
2019-05-06T02:22:34.592Z,976.09
2019-05-06T02:23:33.953Z,976.11
2019-05-06T02:24:33.841Z,976.13
2019-05-06T02:25:34.195Z,976.14
2019-05-06T02:26:34.336Z,976.13
2019-05-06T02:27:34.162Z,976.17
2019-05-06T02:28:34.467Z,976.14
2019-05-06T02:29:34.177Z,976.08
2019-05-06T02:30:36.523Z,976.12
2019-05-06T02:31:35.402Z,976.13
2019-05-06T02:32:35.879Z,976.14
2019-05-06T02:33:35.543Z,976.16
2019-05-06T02:34:36.373Z,976.13
2019-05-06T02:35:34.705Z,976.14
2019-05-06T02:36:34.430Z,976.14
2019-05-06T02:37:35.067Z,976.12
2019-05-06T02:38:45.874Z,976.13
2019-05-06T02:39:34.246Z,976.09
2019-05-06T02:40:33.669Z,976.10
2019-05-06T02:41:33.993Z,976.10
2019-05-06T02:42:33.902Z,976.10
2019-05-06T02:43:34.678Z,976.10
2019-05-06T02:44:33.815Z,976.04
2019-05-06T02:45:33.813Z,976.11
2019-05-06T02:46:33.969Z,976.08
2019-05-06T02:47:34.304Z,976.11
2019-05-06T02:48:33.718Z,976.13
2019-05-06T02:49:33.614Z,976.12
2019-05-06T02:50:34.001Z,976.12
2019-05-06T02:51:33.640Z,976.14
2019-05-06T02:52:33.601Z,976.15
2019-05-06T02:53:33.898Z,976.13
2019-05-06T02:54:34.444Z,976.12
2019-05-06T02:55:36.251Z,976.11
2019-05-06T02:56:33.606Z,976.13
2019-05-06T02:57:33.719Z,976.14
2019-05-06T02:58:33.570Z,976.16
2019-05-06T02:59:33.550Z,976.16
2019-05-06T03:00:33.565Z,976.12
2019-05-06T03:01:34.181Z,976.15
2019-05-06T03:02:39.789Z,976.17
2019-05-06T03:03:33.992Z,976.20
2019-05-06T03:04:33.537Z,976.17
2019-05-06T03:05:33.539Z,976.15
2019-05-06T03:06:33.948Z,976.18
2019-05-06T03:07:37.315Z,976.16
2019-05-06T03:08:33.540Z,976.16
2019-05-06T03:09:34.093Z,976.16
2019-05-06T03:10:33.507Z,976.17
2019-05-06T03:11:33.535Z,976.16
2019-05-06T03:12:33.634Z,976.15
2019-05-06T03:13:34.126Z,976.19
2019-05-06T03:14:34.512Z,976.17
2019-05-06T03:15:34.306Z,976.20
2019-05-06T03:16:33.608Z,976.16
2019-05-06T03:17:33.495Z,976.18
2019-05-06T03:18:33.467Z,976.22
2019-05-06T03:19:34.163Z,976.23
2019-05-06T03:20:35.935Z,976.23
2019-05-06T03:21:36.972Z,976.23
2019-05-06T03:22:34.399Z,976.23
2019-05-06T03:23:34.962Z,976.28
2019-05-06T03:24:33.444Z,976.28
2019-05-06T03:25:33.434Z,976.31
2019-05-06T03:26:33.463Z,976.28
2019-05-06T03:27:33.416Z,976.28
2019-05-06T03:28:33.567Z,976.30
2019-05-06T03:29:33.638Z,976.30
2019-05-06T03:30:36.263Z,976.28
2019-05-06T03:31:36.370Z,976.29
2019-05-06T03:32:38.175Z,976.32
2019-05-06T03:33:50.444Z,976.30
2019-05-06T03:34:52.434Z,976.32
2019-05-06T03:35:48.247Z,976.30
2019-05-06T03:36:39.843Z,976.33
2019-05-06T03:37:33.613Z,976.32
2019-05-06T03:38:33.819Z,976.31
2019-05-06T03:39:33.916Z,976.34
2019-05-06T03:40:36.489Z,976.33
2019-05-06T03:41:34.000Z,976.35
2019-05-06T03:42:33.563Z,976.33
2019-05-06T03:43:34.026Z,976.32
2019-05-06T03:44:33.334Z,976.37
2019-05-06T03:45:33.669Z,976.34
2019-05-06T03:46:33.713Z,976.39
2019-05-06T03:47:34.442Z,976.36
2019-05-06T03:48:33.468Z,976.34
2019-05-06T03:49:33.952Z,976.35
2019-05-06T03:50:33.724Z,976.37
2019-05-06T03:51:34.309Z,976.39
2019-05-06T03:52:34.125Z,976.40
2019-05-06T03:53:33.630Z,976.39
2019-05-06T03:54:34.297Z,976.39
2019-05-06T03:55:34.170Z,976.39
2019-05-06T03:56:33.853Z,976.41
2019-05-06T03:57:36.282Z,976.43
2019-05-06T03:58:34.574Z,976.43
2019-05-06T03:59:33.753Z,976.47
2019-05-06T04:00:33.467Z,976.41
2019-05-06T04:01:33.792Z,976.44
2019-05-06T04:02:33.755Z,976.43
2019-05-06T04:03:43.916Z,976.42
2019-05-06T04:04:33.429Z,976.44
2019-05-06T04:05:33.609Z,976.43
2019-05-06T04:06:33.575Z,976.39
2019-05-06T04:07:34.050Z,976.39
2019-05-06T04:08:34.246Z,976.42
2019-05-06T04:09:36.847Z,976.42
2019-05-06T04:10:36.699Z,976.46
2019-05-06T04:11:35.843Z,976.42
2019-05-06T04:12:33.426Z,976.45
2019-05-06T04:13:33.437Z,976.44
2019-05-06T04:14:34.020Z,976.44
2019-05-06T04:15:34.207Z,976.45
2019-05-06T04:16:33.793Z,976.43
2019-05-06T04:17:33.170Z,976.48
2019-05-06T04:18:33.490Z,976.49
2019-05-06T04:19:33.477Z,976.49
2019-05-06T04:20:34.282Z,976.50
2019-05-06T04:21:33.194Z,976.47
2019-05-06T04:22:33.420Z,976.50
2019-05-06T04:23:33.423Z,976.51
2019-05-06T04:24:33.727Z,976.48
2019-05-06T04:25:34.018Z,976.51
2019-05-06T04:26:33.149Z,976.53
2019-05-06T04:27:33.729Z,976.53
2019-05-06T04:28:34.159Z,976.56
2019-05-06T04:29:35.528Z,976.54
2019-05-06T04:30:33.491Z,976.55
2019-05-06T04:31:33.682Z,976.57
2019-05-06T04:32:34.052Z,976.55
2019-05-06T04:33:33.368Z,976.57
2019-05-06T04:34:33.340Z,976.57
2019-05-06T04:35:33.933Z,976.57
2019-05-06T04:36:33.797Z,976.59
2019-05-06T04:37:33.818Z,976.59
2019-05-06T04:38:33.860Z,976.61
2019-05-06T04:39:33.283Z,976.63
2019-05-06T04:40:33.253Z,976.59
2019-05-06T04:41:34.115Z,976.62
2019-05-06T04:42:34.398Z,976.62
2019-05-06T04:43:33.738Z,976.61
2019-05-06T04:44:33.246Z,976.64
2019-05-06T04:45:33.877Z,976.66
2019-05-06T04:46:34.791Z,976.63
2019-05-06T04:47:33.031Z,976.61
2019-05-06T04:48:33.316Z,976.64
2019-05-06T04:49:33.311Z,976.63
2019-05-06T04:50:33.314Z,976.64
2019-05-06T04:51:36.754Z,976.69
2019-05-06T04:52:34.180Z,976.70
2019-05-06T04:53:33.763Z,976.70
2019-05-06T04:54:33.638Z,976.70
2019-05-06T04:55:33.669Z,976.72
2019-05-06T04:56:33.372Z,976.71
2019-05-06T04:57:33.560Z,976.74
2019-05-06T04:58:33.723Z,976.75
2019-05-06T04:59:32.979Z,976.81
2019-05-06T05:00:33.242Z,976.75
2019-05-06T05:01:34.083Z,976.85
2019-05-06T05:02:33.682Z,976.96
2019-05-06T05:03:33.558Z,976.99
2019-05-06T05:04:36.628Z,977.01
2019-05-06T05:05:33.325Z,977.05
2019-05-06T05:06:33.816Z,977.03
2019-05-06T05:07:33.562Z,977.05
2019-05-06T05:08:33.225Z,977.09
2019-05-06T05:09:32.967Z,977.21
2019-05-06T05:10:32.932Z,977.26
2019-05-06T05:11:33.388Z,977.36
2019-05-06T05:12:33.660Z,977.53
2019-05-06T05:13:33.043Z,977.60
2019-05-06T05:14:32.964Z,977.67
2019-05-06T05:15:32.914Z,977.67
2019-05-06T05:16:33.230Z,977.73
2019-05-06T05:17:33.203Z,977.73
2019-05-06T05:18:32.910Z,977.68
2019-05-06T05:19:32.928Z,977.82
2019-05-06T05:20:39.565Z,977.76
2019-05-06T05:21:32.891Z,977.65
2019-05-06T05:22:32.895Z,977.71
2019-05-06T05:23:32.891Z,977.69
2019-05-06T05:24:32.926Z,977.63
2019-05-06T05:25:32.914Z,977.60
2019-05-06T05:26:32.883Z,977.70
2019-05-06T05:27:33.005Z,977.75
2019-05-06T05:28:32.879Z,977.76
2019-05-06T05:29:32.905Z,977.81
2019-05-06T05:30:32.936Z,977.77
2019-05-06T05:31:33.316Z,977.70
2019-05-06T05:32:32.869Z,977.67
2019-05-06T05:33:32.951Z,977.86
2019-05-06T05:34:39.803Z,977.87
2019-05-06T05:35:32.860Z,977.87
2019-05-06T05:36:33.010Z,977.95
2019-05-06T05:37:32.929Z,977.96
2019-05-06T05:38:32.851Z,977.92
2019-05-06T05:39:33.365Z,977.91
2019-05-06T05:40:32.854Z,977.88
2019-05-06T05:41:33.419Z,977.90
2019-05-06T05:42:32.905Z,977.98
2019-05-06T05:43:32.847Z,977.95
2019-05-06T05:44:32.884Z,977.98
2019-05-06T05:45:32.841Z,978.01
2019-05-06T05:46:33.079Z,978.01
2019-05-06T05:47:33.194Z,977.99
2019-05-06T05:48:32.833Z,978.04
2019-05-06T05:49:32.835Z,978.05
2019-05-06T05:50:32.862Z,978.06
2019-05-06T05:51:32.825Z,978.12
2019-05-06T05:52:33.051Z,978.10
2019-05-06T05:53:32.981Z,978.11
2019-05-06T05:54:33.273Z,978.09
2019-05-06T05:55:33.084Z,978.10
2019-05-06T05:56:33.123Z,978.16
2019-05-06T05:57:32.818Z,978.05
2019-05-06T05:58:33.067Z,978.03
2019-05-06T05:59:33.071Z,978.02
2019-05-06T06:00:32.852Z,978.09
2019-05-06T06:01:32.909Z,978.07
2019-05-06T06:02:33.278Z,978.09
2019-05-06T06:03:32.813Z,978.15
2019-05-06T06:04:32.812Z,978.14
2019-05-06T06:05:33.145Z,978.18
2019-05-06T06:06:33.290Z,978.19
2019-05-06T06:07:32.920Z,978.24
2019-05-06T06:08:32.804Z,978.25
2019-05-06T06:09:32.926Z,978.24
2019-05-06T06:10:33.288Z,978.20
2019-05-06T06:11:32.875Z,978.17
2019-05-06T06:12:32.805Z,978.19
2019-05-06T06:13:32.795Z,978.12
2019-05-06T06:14:33.309Z,978.13
2019-05-06T06:15:32.970Z,978.13
2019-05-06T06:16:32.916Z,978.07
2019-05-06T06:17:32.799Z,978.12
2019-05-06T06:18:33.351Z,978.13
2019-05-06T06:19:32.956Z,978.15
2019-05-06T06:20:32.841Z,978.08
2019-05-06T06:21:32.823Z,978.06
2019-05-06T06:22:33.146Z,978.01
2019-05-06T06:23:32.800Z,978.04
2019-05-06T06:24:32.801Z,978.02
2019-05-06T06:25:33.400Z,978.01
2019-05-06T06:26:32.823Z,978.01
2019-05-06T06:27:33.224Z,978.09
2019-05-06T06:28:33.303Z,978.07
2019-05-06T06:29:32.799Z,978.11
2019-05-06T06:30:33.164Z,978.07
2019-05-06T06:31:33.224Z,978.11
2019-05-06T06:32:32.821Z,978.12
2019-05-06T06:33:33.075Z,978.09
2019-05-06T06:34:33.009Z,978.13
2019-05-06T06:35:32.797Z,978.23
2019-05-06T06:36:32.794Z,978.16
2019-05-06T06:37:33.282Z,978.25
2019-05-06T06:38:32.795Z,978.30
2019-05-06T06:39:32.819Z,978.35
2019-05-06T06:40:33.011Z,978.36
2019-05-06T06:41:32.797Z,978.33
2019-05-06T06:42:33.528Z,978.40
2019-05-06T06:43:32.793Z,978.39
2019-05-06T06:44:33.166Z,978.42
2019-05-06T06:45:32.792Z,978.36
2019-05-06T06:46:32.793Z,978.35
2019-05-06T06:47:32.825Z,978.26
2019-05-06T06:48:32.822Z,978.24
2019-05-06T06:49:32.957Z,978.23
2019-05-06T06:50:32.987Z,978.21
2019-05-06T06:51:33.170Z,978.14
2019-05-06T06:52:32.809Z,978.10
2019-05-06T06:53:32.837Z,978.06
2019-05-06T06:54:32.797Z,978.10
2019-05-06T06:55:32.800Z,978.14
2019-05-06T06:56:33.038Z,978.23
2019-05-06T06:57:34.503Z,978.15
2019-05-06T06:58:32.836Z,978.28
2019-05-06T06:59:32.807Z,978.29
2019-05-06T07:00:33.650Z,978.26
2019-05-06T07:01:33.239Z,978.26
2019-05-06T07:02:32.879Z,978.11
2019-05-06T07:03:32.841Z,978.11
2019-05-06T07:04:32.813Z,978.11
2019-05-06T07:05:33.273Z,978.12
2019-05-06T07:06:33.198Z,978.13
2019-05-06T07:07:41.301Z,978.19
2019-05-06T07:08:37.308Z,978.24
2019-05-06T07:09:32.823Z,978.29
2019-05-06T07:10:32.828Z,978.22
2019-05-06T07:11:33.129Z,978.24
2019-05-06T07:12:32.885Z,978.19
2019-05-06T07:13:32.883Z,978.19
2019-05-06T07:14:35.840Z,978.21
2019-05-06T07:15:33.692Z,978.12
2019-05-06T07:16:32.932Z,978.20
2019-05-06T07:17:32.959Z,978.21
2019-05-06T07:18:33.274Z,978.24
2019-05-06T07:19:32.838Z,978.18
2019-05-06T07:20:32.841Z,978.22
2019-05-06T07:21:34.448Z,978.26
2019-05-06T07:22:32.844Z,978.22
2019-05-06T07:23:32.918Z,978.22
2019-05-06T07:24:32.849Z,978.19
2019-05-06T07:25:33.615Z,978.26
2019-05-06T07:26:32.853Z,978.25
2019-05-06T07:27:32.854Z,978.29
2019-05-06T07:28:32.911Z,978.24
2019-05-06T07:29:32.911Z,978.17
2019-05-06T07:30:32.865Z,978.06
2019-05-06T07:31:33.076Z,978.03
2019-05-06T07:32:32.865Z,977.91
2019-05-06T07:33:33.543Z,978.00
2019-05-06T07:34:32.896Z,978.03
2019-05-06T07:35:40.402Z,978.03
2019-05-06T07:36:32.884Z,978.05
2019-05-06T07:37:32.884Z,977.99
2019-05-06T07:38:32.876Z,978.01
2019-05-06T07:39:33.437Z,977.99
2019-05-06T07:40:32.882Z,978.20
2019-05-06T07:41:36.118Z,978.23
2019-05-06T07:42:32.885Z,978.15
2019-05-06T07:43:33.934Z,978.33
2019-05-06T07:44:33.429Z,978.33
2019-05-06T07:45:32.999Z,978.24
2019-05-06T07:46:33.158Z,978.28
2019-05-06T07:47:33.279Z,978.19
2019-05-06T07:48:32.894Z,978.28
2019-05-06T07:49:33.054Z,978.31
2019-05-06T07:50:33.241Z,978.34
2019-05-06T07:51:32.901Z,978.31
2019-05-06T07:52:32.900Z,978.38
2019-05-06T07:53:32.919Z,978.38
2019-05-06T07:54:33.051Z,978.38
2019-05-06T07:55:32.915Z,978.36
2019-05-06T07:56:32.910Z,978.36
2019-05-06T07:57:33.127Z,978.20
2019-05-06T07:58:32.921Z,978.17
2019-05-06T07:59:33.431Z,978.12
2019-05-06T08:00:32.978Z,978.11
2019-05-06T08:01:33.349Z,978.07
2019-05-06T08:02:32.930Z,978.08
2019-05-06T08:03:33.095Z,978.09
2019-05-06T08:04:32.989Z,978.13
2019-05-06T08:05:32.969Z,978.16
2019-05-06T08:06:32.943Z,978.14
2019-05-06T08:07:33.346Z,978.14
2019-05-06T08:08:33.419Z,978.14
2019-05-06T08:09:32.943Z,978.35
2019-05-06T08:10:33.399Z,978.17
2019-05-06T08:11:32.973Z,978.16
2019-05-06T08:12:32.954Z,978.17
2019-05-06T08:13:32.959Z,978.17
2019-05-06T08:14:32.994Z,978.17
2019-05-06T08:15:33.048Z,978.14
2019-05-06T08:16:32.967Z,978.31
2019-05-06T08:17:33.200Z,978.24
2019-05-06T08:18:42.536Z,978.11
2019-05-06T08:19:33.528Z,978.07
2019-05-06T08:20:33.003Z,978.01
2019-05-06T08:21:32.972Z,977.96
2019-05-06T08:22:33.432Z,978.00
2019-05-06T08:23:32.986Z,977.98
2019-05-06T08:24:33.322Z,977.97
2019-05-06T08:25:33.023Z,977.95
2019-05-06T08:26:32.990Z,977.93
2019-05-06T08:27:33.079Z,977.96
2019-05-06T08:28:40.493Z,977.95
2019-05-06T08:29:33.192Z,977.96
2019-05-06T08:30:33.852Z,977.94
2019-05-06T08:31:33.002Z,977.96
2019-05-06T08:32:33.013Z,978.00
2019-05-06T08:33:33.008Z,978.04
2019-05-06T08:34:34.301Z,978.06
2019-05-06T08:35:33.192Z,978.05
2019-05-06T08:36:33.019Z,978.11
2019-05-06T08:37:33.017Z,978.11
2019-05-06T08:38:33.023Z,978.15
2019-05-06T08:39:33.014Z,978.15
2019-05-06T08:40:33.051Z,978.13
2019-05-06T08:41:33.330Z,978.12
2019-05-06T08:42:33.047Z,978.05
2019-05-06T08:43:33.023Z,978.00
2019-05-06T08:44:33.024Z,978.01
2019-05-06T08:45:33.048Z,977.97
2019-05-06T08:46:33.028Z,977.89
2019-05-06T08:47:33.074Z,977.90
2019-05-06T08:48:33.026Z,977.72
2019-05-06T08:49:33.027Z,977.74
2019-05-06T08:50:33.051Z,977.70
2019-05-06T08:51:33.277Z,977.82
2019-05-06T08:52:33.023Z,977.74
2019-05-06T08:53:33.038Z,977.86
2019-05-06T08:54:33.023Z,977.85
2019-05-06T08:55:33.048Z,977.71
2019-05-06T08:56:33.018Z,977.77
2019-05-06T08:57:33.024Z,977.87
2019-05-06T08:58:33.021Z,978.03
2019-05-06T08:59:33.024Z,978.13
2019-05-06T09:00:33.059Z,978.16
2019-05-06T09:01:33.061Z,978.17
2019-05-06T09:02:33.026Z,978.04
2019-05-06T09:03:33.042Z,978.14
2019-05-06T09:04:33.016Z,978.11
2019-05-06T09:05:33.157Z,978.12
2019-05-06T09:06:34.295Z,978.01
2019-05-06T09:07:33.038Z,978.02
2019-05-06T09:08:33.021Z,977.98
2019-05-06T09:09:33.028Z,978.00
2019-05-06T09:10:33.057Z,977.94
2019-05-06T09:11:33.054Z,977.96
2019-05-06T09:12:33.051Z,977.90
2019-05-06T09:13:33.028Z,977.88
2019-05-06T09:14:33.028Z,977.90
2019-05-06T09:15:33.038Z,977.84
2019-05-06T09:16:33.255Z,977.91
2019-05-06T09:17:33.138Z,977.91
2019-05-06T09:18:33.046Z,977.89
2019-05-06T09:19:33.353Z,977.89
2019-05-06T09:20:33.052Z,977.90
2019-05-06T09:21:33.654Z,977.86
2019-05-06T09:22:33.052Z,977.89
2019-05-06T09:23:33.035Z,977.90
2019-05-06T09:24:33.044Z,977.94
2019-05-06T09:25:33.038Z,977.92
2019-05-06T09:26:33.155Z,977.93
2019-05-06T09:27:33.040Z,977.92
2019-05-06T09:28:33.896Z,977.93
2019-05-06T09:29:33.044Z,977.96
2019-05-06T09:30:33.166Z,977.99
2019-05-06T09:31:33.073Z,978.00
2019-05-06T09:32:36.053Z,977.97
2019-05-06T09:33:33.179Z,977.97
2019-05-06T09:34:33.066Z,977.99
2019-05-06T09:35:33.049Z,978.02
2019-05-06T09:36:43.887Z,978.02
2019-05-06T09:37:33.050Z,977.98
2019-05-06T09:38:33.050Z,977.99
2019-05-06T09:39:33.058Z,977.98
2019-05-06T09:40:33.052Z,978.02
2019-05-06T09:41:33.098Z,978.00
2019-05-06T09:42:33.052Z,978.05
2019-05-06T09:43:33.057Z,978.05
2019-05-06T09:44:33.147Z,978.06
2019-05-06T09:45:33.124Z,978.02
2019-05-06T09:46:33.193Z,978.02
2019-05-06T09:47:33.186Z,978.02
2019-05-06T09:48:33.180Z,978.00
2019-05-06T09:49:33.057Z,977.98
2019-05-06T09:50:33.063Z,977.94
2019-05-06T09:51:33.097Z,977.91
2019-05-06T09:52:33.404Z,977.91
2019-05-06T09:53:33.480Z,977.85
2019-05-06T09:54:33.063Z,977.90
2019-05-06T09:55:33.068Z,977.89
2019-05-06T09:56:33.558Z,977.89
2019-05-06T09:57:33.065Z,977.92
2019-05-06T09:58:33.064Z,977.90
2019-05-06T09:59:33.060Z,977.90
2019-05-06T10:00:33.147Z,977.85
2019-05-06T10:01:33.258Z,977.83
2019-05-06T10:02:33.071Z,977.87
2019-05-06T10:03:33.073Z,977.87
2019-05-06T10:04:33.072Z,977.88
2019-05-06T10:05:33.070Z,977.91
2019-05-06T10:06:33.097Z,977.86
2019-05-06T10:07:33.928Z,977.84
2019-05-06T10:08:33.075Z,977.85
2019-05-06T10:09:33.073Z,977.82
2019-05-06T10:10:33.077Z,977.82
2019-05-06T10:11:33.271Z,977.76
2019-05-06T10:12:33.076Z,977.74
2019-05-06T10:13:33.074Z,977.77
2019-05-06T10:14:33.078Z,977.74
2019-05-06T10:15:33.083Z,977.79
2019-05-06T10:16:33.081Z,977.79
2019-05-06T10:17:33.109Z,977.78
2019-05-06T10:18:33.081Z,977.74
2019-05-06T10:19:33.082Z,977.78
2019-05-06T10:20:33.094Z,977.77
2019-05-06T10:21:33.109Z,977.80
2019-05-06T10:22:33.085Z,977.79
2019-05-06T10:23:33.085Z,977.81
2019-05-06T10:24:33.086Z,977.89
2019-05-06T10:25:33.085Z,978.04
2019-05-06T10:26:33.129Z,977.86
2019-05-06T10:27:33.086Z,977.90
2019-05-06T10:28:33.807Z,977.87
2019-05-06T10:29:33.089Z,977.91
2019-05-06T10:30:33.271Z,977.98
2019-05-06T10:31:33.087Z,977.97
2019-05-06T10:32:33.121Z,977.99
2019-05-06T10:33:33.106Z,978.10
2019-05-06T10:34:33.098Z,977.94
2019-05-06T10:35:33.099Z,977.89
2019-05-06T10:36:33.106Z,977.90
2019-05-06T10:37:33.616Z,977.92
2019-05-06T10:38:33.108Z,977.88
2019-05-06T10:39:33.110Z,977.86
2019-05-06T10:40:33.261Z,977.86
2019-05-06T10:41:33.133Z,977.82
2019-05-06T10:42:33.150Z,977.80
2019-05-06T10:43:33.125Z,977.80
2019-05-06T10:44:33.136Z,977.78
2019-05-06T10:45:33.134Z,977.78
2019-05-06T10:46:33.130Z,977.78
2019-05-06T10:47:33.188Z,977.82
2019-05-06T10:48:33.147Z,977.81
2019-05-06T10:49:33.646Z,977.80
2019-05-06T10:50:33.137Z,977.82
2019-05-06T10:51:33.166Z,977.81
2019-05-06T10:52:33.378Z,977.78
2019-05-06T10:53:33.142Z,977.81
2019-05-06T10:54:33.147Z,977.73
2019-05-06T10:55:33.141Z,977.77
2019-05-06T10:56:33.172Z,977.80
2019-05-06T10:57:33.148Z,977.81
2019-05-06T10:58:33.155Z,977.79
2019-05-06T10:59:33.178Z,977.82
2019-05-06T11:00:33.324Z,977.75
2019-05-06T11:01:33.235Z,977.81
2019-05-06T11:02:33.184Z,977.79
2019-05-06T11:03:33.181Z,977.81
2019-05-06T11:04:33.270Z,977.83
2019-05-06T11:05:33.159Z,977.81
2019-05-06T11:06:33.655Z,977.81
2019-05-06T11:07:35.398Z,977.80
2019-05-06T11:08:33.155Z,977.82
2019-05-06T11:09:33.376Z,977.83
2019-05-06T11:10:40.926Z,977.83
2019-05-06T11:11:38.441Z,977.85
2019-05-06T11:12:33.150Z,977.86
2019-05-06T11:13:33.192Z,977.84
2019-05-06T11:14:33.203Z,977.81
2019-05-06T11:15:33.163Z,977.84
2019-05-06T11:16:33.421Z,977.83
2019-05-06T11:17:33.156Z,977.80
2019-05-06T11:18:33.569Z,977.81
2019-05-06T11:19:33.222Z,977.83
2019-05-06T11:20:33.570Z,977.84
2019-05-06T11:21:33.149Z,977.82
2019-05-06T11:22:33.145Z,977.82
2019-05-06T11:23:33.792Z,977.86
2019-05-06T11:24:33.152Z,977.81
2019-05-06T11:25:33.150Z,977.84
2019-05-06T11:26:33.147Z,977.83
2019-05-06T11:27:35.282Z,977.78
2019-05-06T11:28:35.286Z,977.78
2019-05-06T11:29:34.004Z,977.79
2019-05-06T11:30:33.263Z,977.79
2019-05-06T11:31:33.497Z,977.84
2019-05-06T11:32:33.202Z,977.82
2019-05-06T11:33:33.175Z,977.84
2019-05-06T11:34:33.152Z,977.91
2019-05-06T11:35:33.152Z,977.84
2019-05-06T11:36:33.148Z,977.92
2019-05-06T11:37:45.971Z,978.07
2019-05-06T11:38:33.185Z,977.98
2019-05-06T11:39:33.162Z,977.89
2019-05-06T11:40:33.367Z,977.86
2019-05-06T11:41:33.160Z,977.90
2019-05-06T11:42:35.776Z,977.83
2019-05-06T11:43:33.192Z,977.81
2019-05-06T11:44:33.174Z,977.73
2019-05-06T11:45:33.175Z,977.75
2019-05-06T11:46:33.173Z,977.72
2019-05-06T11:47:33.182Z,977.71
2019-05-06T11:48:33.208Z,977.71
2019-05-06T11:49:33.183Z,977.74
2019-05-06T11:50:33.542Z,977.70
2019-05-06T11:51:33.866Z,977.74
2019-05-06T11:52:34.667Z,977.78
2019-05-06T11:53:33.228Z,977.75
2019-05-06T11:54:33.863Z,977.70
2019-05-06T11:55:38.583Z,977.66
2019-05-06T11:56:47.491Z,977.67
2019-05-06T11:57:33.214Z,977.69
2019-05-06T11:58:33.247Z,977.77
2019-05-06T11:59:33.216Z,977.78
2019-05-06T12:00:35.879Z,977.84
2019-05-06T12:01:33.217Z,977.82
2019-05-06T12:02:33.223Z,977.92
2019-05-06T12:03:33.874Z,977.92
2019-05-06T12:04:33.224Z,978.00
2019-05-06T12:05:33.230Z,977.86
2019-05-06T12:06:33.289Z,977.88
2019-05-06T12:07:33.413Z,977.84
2019-05-06T12:08:33.237Z,977.78
2019-05-06T12:09:33.523Z,977.81
2019-05-06T12:10:33.240Z,977.82
2019-05-06T12:11:33.252Z,977.84
2019-05-06T12:12:33.281Z,977.77
2019-05-06T12:13:33.839Z,977.86
2019-05-06T12:14:33.262Z,977.84
2019-05-06T12:15:33.269Z,977.71
2019-05-06T12:16:33.655Z,977.77
2019-05-06T12:17:33.301Z,977.77
2019-05-06T12:18:33.279Z,977.71
2019-05-06T12:19:33.292Z,977.79
2019-05-06T12:20:33.285Z,977.73
2019-05-06T12:21:33.301Z,977.73
2019-05-06T12:22:33.321Z,977.71
2019-05-06T12:23:35.508Z,977.87
2019-05-06T12:24:33.303Z,977.73
2019-05-06T12:25:33.310Z,977.65
2019-05-06T12:26:33.315Z,977.63
2019-05-06T12:27:33.351Z,977.69
2019-05-06T12:28:33.327Z,977.76